Time;durP1;ratioP1;P1;durP2;ratioP2;P2;SDS_P1;SDS_P2;PMS_P1;PMS_P2;Temp;Humidity;BMP_temperature;BMP_pressure;BME280_temperature;BME280_humidity;BME280_pressure;Samples;Min_cycle;Max_cycle;Signal;HPM_P1;HPM_P2
2020/12/27 00:01:07;;;;;;;12.27;5.50;;;;;;;;;;5096239;28;20351;-55
2020/12/27 00:03:34;;;;;;;24.63;5.60;;;;;;;;;;5096159;28;20360;-55
2020/12/27 00:06:00;;;;;;;6.63;4.30;;;;;;;;;;5096042;28;20085;-55
2020/12/27 00:08:27;;;;;;;10.03;4.23;;;;;;;;;;5096032;28;20031;-55
2020/12/27 00:10:54;;;;;;;11.03;4.60;;;;;;;;;;5096240;28;20086;-55
2020/12/27 00:13:21;;;;;;;17.40;4.50;;;;;;;;;;5095983;28;20028;-55
2020/12/27 00:15:47;;;;;;;9.43;4.40;;;;;;;;;;5096047;28;20032;-55
2020/12/27 00:18:14;;;;;;;12.27;4.50;;;;;;;;;;5084455;28;20079;-55
2020/12/27 00:20:41;;;;;;;8.03;3.87;;;;;;;;;;5095934;28;20058;-55
2020/12/27 00:23:07;;;;;;;11.37;4.33;;;;;;;;;;5095935;28;20055;-55
2020/12/27 00:25:37;;;;;;;25.13;5.93;;;;;;;;;;5095732;28;20471;-55
2020/12/27 00:28:04;;;;;;;10.47;4.30;;;;;;;;;;5095715;28;20028;-55
2020/12/27 00:30:31;;;;;;;9.33;4.27;;;;;;;;;;5095606;28;20390;-55
2020/12/27 00:32:57;;;;;;;7.33;3.20;;;;;;;;;;5095798;28;20094;-55
2020/12/27 00:35:24;;;;;;;10.13;4.87;;;;;;;;;;5095565;28;20020;-55
2020/12/27 00:37:51;;;;;;;11.03;4.23;;;;;;;;;;5095573;28;20047;-55
2020/12/27 00:40:17;;;;;;;12.17;4.40;;;;;;;;;;5095499;28;20028;-55
2020/12/27 00:42:44;;;;;;;10.13;4.10;;;;;;;;;;5095551;28;20028;-55
2020/12/27 00:45:11;;;;;;;6.73;3.97;;;;;;;;;;5095390;28;20486;-55
2020/12/27 00:47:37;;;;;;;11.27;4.17;;;;;;;;;;5095163;28;20420;-55
2020/12/27 00:50:04;;;;;;;13.40;5.27;;;;;;;;;;5095346;28;20016;-55
2020/12/27 00:52:31;;;;;;;14.00;4.73;;;;;;;;;;5095234;28;20032;-55
2020/12/27 00:54:57;;;;;;;17.63;7.13;;;;;;;;;;5095486;28;20024;-55
2020/12/27 00:57:24;;;;;;;13.83;6.83;;;;;;;;;;5095192;28;20069;-55
2020/12/27 00:59:51;;;;;;;33.77;13.33;;;;;;;;;;5095023;28;20047;-55
2020/12/27 01:02:17;;;;;;;26.27;8.93;;;;;;;;;;5095048;28;20081;-55
2020/12/27 01:04:44;;;;;;;29.63;10.67;;;;;;;;;;5094952;28;20020;-55
2020/12/27 01:07:11;;;;;;;27.17;8.47;;;;;;;;;;5094829;28;20583;-55
2020/12/27 01:09:37;;;;;;;18.67;6.93;;;;;;;;;;5094967;28;20028;-55
2020/12/27 01:12:04;;;;;;;17.30;5.80;;;;;;;;;;5094842;28;20107;-55
2020/12/27 01:14:31;;;;;;;12.57;6.50;;;;;;;;;;5094848;28;20478;-55
2020/12/27 01:16:57;;;;;;;15.53;6.47;;;;;;;;;;5094864;28;20149;-55
2020/12/27 01:19:24;;;;;;;20.47;7.20;;;;;;;;;;5074151;28;20049;-55
2020/12/27 01:21:53;;;;;;;15.70;7.13;;;;;;;;;;5074526;28;20058;-55
2020/12/27 01:24:20;;;;;;;14.43;6.40;;;;;;;;;;5074326;28;20027;-55
2020/12/27 01:26:47;;;;;;;12.80;6.20;;;;;;;;;;5074119;28;20087;-55
2020/12/27 01:29:13;;;;;;;11.93;5.63;;;;;;;;;;5074223;28;20030;-55
2020/12/27 01:31:40;;;;;;;19.37;5.43;;;;;;;;;;5074261;28;20068;-55
2020/12/27 01:34:07;;;;;;;9.53;5.70;;;;;;;;;;5074373;28;20670;-55
2020/12/27 01:36:35;;;;;;;17.93;6.40;;;;;;;;;;5074082;28;20063;-55
2020/12/27 01:39:03;;;;;;;11.97;6.07;;;;;;;;;;5074009;28;20037;-55
2020/12/27 01:41:30;;;;;;;11.10;5.40;;;;;;;;;;5074058;28;20059;-55
2020/12/27 01:44:05;;;;;;;10.37;5.80;;;;;;;;;;5073864;28;20056;-55
2020/12/27 01:46:33;;;;;;;9.10;5.25;;;;;;;;;;5073779;28;20024;-55
2020/12/27 01:49:00;;;;;;;11.83;6.23;;;;;;;;;;5073761;28;20032;-55
2020/12/27 01:51:26;;;;;;;17.27;8.23;;;;;;;;;;5073905;28;20028;-55
2020/12/27 01:53:53;;;;;;;38.93;18.17;;;;;;;;;;5073850;28;20048;-55
2020/12/27 01:56:27;;;;;;;47.13;22.00;;;;;;;;;;5073754;28;20052;-55
2020/12/27 01:58:57;;;;;;;35.57;17.80;;;;;;;;;;5073568;28;20029;-55
2020/12/27 02:01:24;;;;;;;32.10;16.40;;;;;;;;;;5073648;28;20020;-55
2020/12/27 02:03:50;;;;;;;47.40;13.93;;;;;;;;;;5073594;28;20024;-55
2020/12/27 02:06:17;;;;;;;22.73;11.60;;;;;;;;;;5073616;28;20051;-55
2020/12/27 02:08:44;;;;;;;35.13;12.97;;;;;;;;;;5073515;28;20496;-55
2020/12/27 02:11:10;;;;;;;29.67;11.43;;;;;;;;;;5073439;28;20021;-55
2020/12/27 02:13:47;;;;;;;20.00;8.93;;;;;;;;;;5073496;28;20100;-55
2020/12/27 02:16:16;;;;;;;15.87;8.30;;;;;;;;;;5072747;28;20021;-55
2020/12/27 02:18:42;;;;;;;26.60;8.50;;;;;;;;;;5073551;28;20064;-55
2020/12/27 02:21:09;;;;;;;21.17;7.63;;;;;;;;;;5093447;28;20028;-55
2020/12/27 02:23:38;;;;;;;16.93;7.87;;;;;;;;;;5093824;28;20371;-55
2020/12/27 02:26:05;;;;;;;24.33;9.07;;;;;;;;;;5093418;28;20032;-55
2020/12/27 02:28:32;;;;;;;14.63;7.27;;;;;;;;;;5093321;28;20050;-55
2020/12/27 02:30:59;;;;;;;14.67;6.70;;;;;;;;;;5093374;28;20028;-55
2020/12/27 02:33:26;;;;;;;14.50;8.00;;;;;;;;;;5093371;28;20367;-55
2020/12/27 02:35:53;;;;;;;19.03;6.77;;;;;;;;;;5093490;28;20087;-55
2020/12/27 02:38:20;;;;;;;11.20;5.30;;;;;;;;;;5093311;28;20028;-55
2020/12/27 02:40:46;;;;;;;14.20;6.57;;;;;;;;;;5093316;28;20024;-55
2020/12/27 02:43:17;;;;;;;9.60;5.27;;;;;;;;;;5093311;28;20093;-55
2020/12/27 02:45:45;;;;;;;10.73;5.33;;;;;;;;;;5093299;28;20043;-54
2020/12/27 02:48:12;;;;;;;10.90;5.23;;;;;;;;;;5093062;28;20040;-55
2020/12/27 02:50:39;;;;;;;12.70;5.60;;;;;;;;;;5093155;28;20043;-55
2020/12/27 02:53:05;;;;;;;18.13;5.40;;;;;;;;;;5093221;28;20107;-55
2020/12/27 02:55:35;;;;;;;10.80;5.33;;;;;;;;;;5093122;28;20020;-55
2020/12/27 02:58:02;;;;;;;10.07;5.13;;;;;;;;;;5093063;28;20028;-55
2020/12/27 03:00:30;;;;;;;13.87;6.13;;;;;;;;;;5092066;28;20024;-55
2020/12/27 03:02:59;;;;;;;10.77;5.27;;;;;;;;;;5092876;28;20024;-55
2020/12/27 03:05:26;;;;;;;8.63;5.33;;;;;;;;;;5093054;28;20016;-55
2020/12/27 03:07:53;;;;;;;12.23;5.37;;;;;;;;;;5092905;28;20553;-54
2020/12/27 03:10:19;;;;;;;11.60;5.80;;;;;;;;;;5092898;28;20024;-54
2020/12/27 03:12:47;;;;;;;11.37;5.40;;;;;;;;;;5092988;28;20047;-55
2020/12/27 03:15:14;;;;;;;9.67;5.17;;;;;;;;;;5092869;28;20032;-54
2020/12/27 03:17:41;;;;;;;10.67;5.73;;;;;;;;;;5085135;28;20041;-55
2020/12/27 03:20:16;;;;;;;12.30;5.70;;;;;;;;;;5052656;28;20096;-55
2020/12/27 03:22:43;;;;;;;10.80;6.20;;;;;;;;;;5052839;28;20036;-54
2020/12/27 03:25:10;;;;;;;14.33;5.63;;;;;;;;;;5052502;28;20479;-55
2020/12/27 03:27:37;;;;;;;9.40;5.17;;;;;;;;;;5052339;28;20029;-55
2020/12/27 03:30:07;;;;;;;8.83;6.07;;;;;;;;;;5056471;28;20021;-53
2020/12/27 03:32:34;;;;;;;14.97;5.70;;;;;;;;;;5038579;28;20040;-54
2020/12/27 03:35:00;;;;;;;10.00;4.53;;;;;;;;;;5056577;28;20037;-54
2020/12/27 03:37:27;;;;;;;7.90;5.13;;;;;;;;;;5056312;28;20033;-55
2020/12/27 03:39:54;;;;;;;12.57;5.20;;;;;;;;;;5056435;28;20155;-54
2020/12/27 03:42:23;;;;;;;11.37;4.90;;;;;;;;;;5056272;28;20475;-54
2020/12/27 03:44:50;;;;;;;10.70;4.50;;;;;;;;;;5056219;28;20033;-55
2020/12/27 03:47:17;;;;;;;8.40;4.23;;;;;;;;;;5056099;28;20075;-54
2020/12/27 03:49:43;;;;;;;9.37;5.27;;;;;;;;;;5056064;28;20486;-55
2020/12/27 03:52:10;;;;;;;7.47;4.50;;;;;;;;;;5055931;28;20176;-53
2020/12/27 03:54:37;;;;;;;12.53;5.80;;;;;;;;;;5056515;28;20417;-55
2020/12/27 03:57:03;;;;;;;9.30;5.80;;;;;;;;;;5055932;28;20112;-55
2020/12/27 03:59:30;;;;;;;7.50;5.03;;;;;;;;;;5055931;28;20021;-55
2020/12/27 04:01:57;;;;;;;9.30;4.87;;;;;;;;;;5056036;28;20025;-55
2020/12/27 04:04:23;;;;;;;8.33;5.23;;;;;;;;;;5055824;28;20044;-55
2020/12/27 04:06:50;;;;;;;10.50;4.83;;;;;;;;;;5055695;28;20083;-55
2020/12/27 04:09:17;;;;;;;12.73;5.93;;;;;;;;;;5055934;28;20463;-55
2020/12/27 04:11:43;;;;;;;11.50;5.57;;;;;;;;;;5055742;28;20021;-54
2020/12/27 04:14:10;;;;;;;9.70;5.23;;;;;;;;;;5055827;28;20025;-54
2020/12/27 04:16:37;;;;;;;11.50;5.03;;;;;;;;;;5055567;28;20096;-54
2020/12/27 04:19:04;;;;;;;6.67;4.40;;;;;;;;;;5056845;28;20068;-55
2020/12/27 04:21:31;;;;;;;7.73;4.90;;;;;;;;;;5055650;28;20017;-55
2020/12/27 04:23:57;;;;;;;7.03;4.57;;;;;;;;;;5055674;28;20036;-54
2020/12/27 04:26:24;;;;;;;7.77;5.27;;;;;;;;;;5055254;28;20463;-55
2020/12/27 04:28:51;;;;;;;8.63;4.90;;;;;;;;;;5055397;28;20103;-55
2020/12/27 04:31:18;;;;;;;8.00;5.17;;;;;;;;;;5055390;28;20025;-55
2020/12/27 04:33:45;;;;;;;8.13;4.87;;;;;;;;;;5055378;28;20152;-54
2020/12/27 04:36:12;;;;;;;8.63;5.20;;;;;;;;;;5037784;28;20029;-54
2020/12/27 04:38:39;;;;;;;6.83;4.53;;;;;;;;;;5055017;28;20052;-54
2020/12/27 04:41:05;;;;;;;7.07;4.47;;;;;;;;;;5055252;28;20029;-54
2020/12/27 04:43:32;;;;;;;9.23;3.93;;;;;;;;;;5055113;28;20036;-55
2020/12/27 04:46:00;;;;;;;7.03;4.37;;;;;;;;;;5055087;28;20047;-54
2020/12/27 04:48:27;;;;;;;10.17;4.50;;;;;;;;;;5055019;28;20048;-54
2020/12/27 04:50:54;;;;;;;9.90;4.77;;;;;;;;;;5054988;28;20025;-54
2020/12/27 04:53:21;;;;;;;10.23;5.33;;;;;;;;;;5054988;28;20419;-54
2020/12/27 04:55:52;;;;;;;10.57;4.93;;;;;;;;;;5054874;28;20049;-54
2020/12/27 04:58:22;;;;;;;7.90;4.53;;;;;;;;;;5054784;28;20555;-54
2020/12/27 05:00:51;;;;;;;11.67;6.10;;;;;;;;;;5054815;28;20029;-54
2020/12/27 05:03:18;;;;;;;8.63;5.03;;;;;;;;;;5054947;28;20044;-53
2020/12/27 05:05:48;;;;;;;9.63;5.20;;;;;;;;;;5054714;28;20029;-54
2020/12/27 05:08:15;;;;;;;9.03;4.67;;;;;;;;;;5054509;28;20132;-54
2020/12/27 05:10:42;;;;;;;9.27;4.40;;;;;;;;;;5054685;28;20432;-54
2020/12/27 05:13:09;;;;;;;8.93;5.27;;;;;;;;;;5054739;28;20044;-54
2020/12/27 05:15:36;;;;;;;8.87;4.40;;;;;;;;;;5054545;28;20056;-54
2020/12/27 05:18:07;;;;;;;6.90;4.90;;;;;;;;;;5060168;28;20056;-55
2020/12/27 05:20:34;;;;;;;6.93;4.10;;;;;;;;;;5074510;28;20037;-55
2020/12/27 05:23:04;;;;;;;8.00;4.20;;;;;;;;;;5074524;28;20117;-54
2020/12/27 05:25:35;;;;;;;11.93;4.80;;;;;;;;;;5074737;28;20028;-55
2020/12/27 05:28:03;;;;;;;9.43;5.07;;;;;;;;;;5074255;28;20040;-54
2020/12/27 05:30:30;;;;;;;10.97;5.87;;;;;;;;;;5074255;28;20032;-54
2020/12/27 05:32:57;;;;;;;11.87;4.90;;;;;;;;;;5074193;28;20100;-55
2020/12/27 05:35:24;;;;;;;8.43;4.90;;;;;;;;;;5074164;28;20379;-55
2020/12/27 05:37:51;;;;;;;7.83;4.00;;;;;;;;;;5074064;28;20075;-55
2020/12/27 05:40:18;;;;;;;10.37;4.47;;;;;;;;;;5074216;28;20083;-55
2020/12/27 05:42:46;;;;;;;11.20;4.77;;;;;;;;;;5073979;28;20383;-54
2020/12/27 05:45:16;;;;;;;8.00;4.40;;;;;;;;;;5074005;28;20021;-54
2020/12/27 05:47:44;;;;;;;8.27;4.67;;;;;;;;;;5073782;28;20123;-55
2020/12/27 05:50:15;;;;;;;6.67;4.20;;;;;;;;;;5073738;28;20056;-55
2020/12/27 05:52:45;;;;;;;8.73;4.80;;;;;;;;;;5073765;28;20059;-54
2020/12/27 05:55:18;;;;;;;10.00;4.70;;;;;;;;;;5073776;28;20103;-54
2020/12/27 05:57:49;;;;;;;16.03;4.60;;;;;;;;;;5073707;28;20039;-55
2020/12/27 06:00:24;;;;;;;7.03;4.40;;;;;;;;;;5073616;28;20029;-54
2020/12/27 06:02:57;;;;;;;8.73;5.22;;;;;;;;;;5073789;28;20040;-54
2020/12/27 06:05:44;;;;;;;8.93;4.43;;;;;;;;;;5073608;28;20089;-54
2020/12/27 06:08:23;;;;;;;8.17;4.23;;;;;;;;;;5073306;28;20285;-54
2020/12/27 06:10:56;;;;;;;8.17;4.50;;;;;;;;;;5073578;28;20277;-54
2020/12/27 06:13:41;;;;;;;6.90;4.23;;;;;;;;;;5073418;28;20324;-54
2020/12/27 06:16:11;;;;;;;8.65;5.35;;;;;;;;;;5057057;28;20253;-55
2020/12/27 06:18:40;;;;;;;7.77;4.13;;;;;;;;;;5074357;28;20055;-55
2020/12/27 06:21:08;;;;;;;8.27;5.07;;;;;;;;;;5073391;28;20362;-54
2020/12/27 06:23:36;;;;;;;9.20;4.23;;;;;;;;;;5073294;28;20264;-53
2020/12/27 06:26:03;;;;;;;10.20;5.27;;;;;;;;;;5073385;28;20277;-53
2020/12/27 06:28:31;;;;;;;10.17;5.23;;;;;;;;;;5072953;28;20285;-55
2020/12/27 06:30:59;;;;;;;7.07;5.33;;;;;;;;;;5073252;28;20245;-55
2020/12/27 06:33:28;;;;;;;10.20;4.50;;;;;;;;;;5073158;28;20285;-55
2020/12/27 06:35:55;;;;;;;10.70;4.70;;;;;;;;;;5073163;28;20273;-54
2020/12/27 06:38:22;;;;;;;7.07;4.40;;;;;;;;;;5072997;28;20253;-55
2020/12/27 06:40:54;;;;;;;9.73;5.67;;;;;;;;;;5073245;28;20276;-55
2020/12/27 06:43:22;;;;;;;9.20;4.80;;;;;;;;;;5073035;28;20612;-54
2020/12/27 06:45:49;;;;;;;12.13;5.13;;;;;;;;;;5073247;28;20246;-54
2020/12/27 06:48:32;;;;;;;9.43;4.80;;;;;;;;;;5072860;28;20293;-54
2020/12/27 06:50:59;;;;;;;8.37;4.30;;;;;;;;;;5073006;28;20292;-54
2020/12/27 06:53:40;;;;;;;8.47;4.07;;;;;;;;;;5072885;28;20318;-54
2020/12/27 06:56:09;;;;;;;10.13;4.47;;;;;;;;;;5072951;28;20257;-54
2020/12/27 06:58:36;;;;;;;7.67;3.97;;;;;;;;;;5072910;28;20261;-54
2020/12/27 07:01:28;;;;;;;7.90;3.93;;;;;;;;;;5072112;28;20652;-55
2020/12/27 07:04:11;;;;;;;8.43;4.23;;;;;;;;;;5069159;28;20292;-54
2020/12/27 07:06:41;;;;;;;10.17;4.33;;;;;;;;;;5072614;28;20677;-54
2020/12/27 07:09:08;;;;;;;7.90;4.30;;;;;;;;;;5072670;28;20261;-55
2020/12/27 07:11:35;;;;;;;15.20;5.20;;;;;;;;;;5072764;28;20248;-54
2020/12/27 07:14:02;;;;;;;8.33;5.00;;;;;;;;;;5072710;28;20260;-55
2020/12/27 07:16:50;;;;;;;9.97;4.33;;;;;;;;;;5072602;28;20253;-55
2020/12/27 07:19:18;;;;;;;7.70;4.43;;;;;;;;;;5073547;28;20636;-54
2020/12/27 07:21:48;;;;;;;8.47;4.13;;;;;;;;;;5072576;28;20339;-54
2020/12/27 07:24:18;;;;;;;8.33;3.87;;;;;;;;;;5072612;28;20249;-54
2020/12/27 07:26:46;;;;;;;7.47;4.33;;;;;;;;;;5072447;28;20335;-55
2020/12/27 07:29:15;;;;;;;7.37;4.63;;;;;;;;;;5072615;28;20269;-55
2020/12/27 07:31:42;;;;;;;8.10;5.30;;;;;;;;;;5072483;28;20241;-55
2020/12/27 07:34:09;;;;;;;6.40;4.20;;;;;;;;;;5072607;28;20260;-54
2020/12/27 07:36:36;;;;;;;6.77;4.67;;;;;;;;;;5072290;28;20323;-54
2020/12/27 07:39:08;;;;;;;12.00;5.23;;;;;;;;;;5072076;28;20642;-54
2020/12/27 07:41:43;;;;;;;7.10;4.57;;;;;;;;;;5072431;28;20241;-54
2020/12/27 07:44:18;;;;;;;12.10;6.05;;;;;;;;;;5072472;28;20801;-54
2020/12/27 07:46:45;;;;;;;8.13;4.03;;;;;;;;;;5072155;28;20037;-55
2020/12/27 07:49:12;;;;;;;11.20;4.50;;;;;;;;;;5072144;28;20273;-54
2020/12/27 07:51:39;;;;;;;12.27;4.80;;;;;;;;;;5072135;28;20344;-54
2020/12/27 07:54:07;;;;;;;6.23;4.43;;;;;;;;;;5072443;28;20297;-55
2020/12/27 07:56:34;;;;;;;6.73;4.17;;;;;;;;;;5072097;28;20252;-55
2020/12/27 07:59:01;;;;;;;7.30;4.93;;;;;;;;;;5072473;28;20642;-54
2020/12/27 08:01:32;;;;;;;9.20;5.13;;;;;;;;;;5072194;28;20253;-54
2020/12/27 08:04:03;;;;;;;7.03;4.80;;;;;;;;;;5072131;28;20328;-55
2020/12/27 08:06:31;;;;;;;8.83;4.93;;;;;;;;;;5072084;28;20257;-54
2020/12/27 08:09:11;;;;;;;8.10;3.97;;;;;;;;;;5072104;28;20262;-54
2020/12/27 08:11:39;;;;;;;11.27;4.90;;;;;;;;;;5072310;28;20246;-54
2020/12/27 08:14:07;;;;;;;10.60;5.20;;;;;;;;;;5072660;28;20261;-54
2020/12/27 08:16:34;;;;;;;10.97;5.07;;;;;;;;;;5075678;28;20327;-55
2020/12/27 08:19:02;;;;;;;7.40;4.07;;;;;;;;;;5076813;27;20351;-55
2020/12/27 08:21:29;;;;;;;7.47;4.90;;;;;;;;;;5075646;28;20245;-55
2020/12/27 08:24:22;;;;;;;10.57;4.80;;;;;;;;;;5075479;28;20249;-55
2020/12/27 08:26:49;;;;;;;7.33;4.43;;;;;;;;;;5072540;28;20372;-55
2020/12/27 08:29:17;;;;;;;6.90;4.30;;;;;;;;;;5075492;28;20269;-54
2020/12/27 08:31:45;;;;;;;8.60;5.23;;;;;;;;;;5075248;28;20253;-54
2020/12/27 08:34:19;;;;;;;6.60;4.20;;;;;;;;;;5075202;28;20269;-54
2020/12/27 08:36:49;;;;;;;10.40;4.67;;;;;;;;;;5075408;28;20874;-54
2020/12/27 08:39:28;;;;;;;6.37;4.60;;;;;;;;;;5075255;28;20253;-55
2020/12/27 08:42:07;;;;;;;7.70;5.30;;;;;;;;;;5075242;28;20269;-54
2020/12/27 08:44:52;;;;;;;5.93;4.30;;;;;;;;;;5075128;28;20308;-54
2020/12/27 08:47:18;;;;;;;6.10;3.67;;;;;;;;;;5074981;28;20316;-54
2020/12/27 08:50:05;;;;;;;10.23;4.80;;;;;;;;;;5075227;28;20028;-55
2020/12/27 08:52:33;;;;;;;6.23;4.10;;;;;;;;;;5074952;28;20265;-53
2020/12/27 08:55:01;;;;;;;6.00;3.83;;;;;;;;;;5074997;28;20254;-54
2020/12/27 08:57:28;;;;;;;8.20;4.37;;;;;;;;;;5075029;28;20254;-54
2020/12/27 09:00:13;;;;;;;9.93;4.77;;;;;;;;;;5074777;28;20250;-54
2020/12/27 09:02:40;;;;;;;6.53;4.28;;;;;;;;;;5075062;28;20642;-55
2020/12/27 09:05:07;;;;;;;8.13;4.53;;;;;;;;;;5074886;28;20012;-54
2020/12/27 09:07:35;;;;;;;7.10;4.60;;;;;;;;;;5074571;28;20285;-54
2020/12/27 09:10:07;;;;;;;7.03;4.47;;;;;;;;;;5074677;28;20304;-54
2020/12/27 09:12:34;;;;;;;8.13;5.23;;;;;;;;;;5074615;28;20273;-54
2020/12/27 09:15:00;;;;;;;7.77;5.00;;;;;;;;;;5074964;28;20285;-54
2020/12/27 09:17:30;;;;;;;13.07;5.07;;;;;;;;;;5074585;28;20258;-55
2020/12/27 09:19:57;;;;;;;10.40;5.10;;;;;;;;;;5075732;28;20316;-55
2020/12/27 09:22:23;;;;;;;8.20;5.00;;;;;;;;;;5074518;28;20813;-53
2020/12/27 09:25:06;;;;;;;7.57;5.50;;;;;;;;;;5074277;28;20245;-54
2020/12/27 09:27:33;;;;;;;8.63;4.63;;;;;;;;;;5074038;28;20359;-54
2020/12/27 09:30:03;;;;;;;8.27;5.43;;;;;;;;;;5074564;28;20261;-54
2020/12/27 09:32:34;;;;;;;7.07;5.07;;;;;;;;;;5074228;28;20269;-54
2020/12/27 09:35:00;;;;;;;7.37;5.27;;;;;;;;;;5074186;28;20315;-53
2020/12/27 09:37:36;;;;;;;9.03;5.23;;;;;;;;;;5074081;28;20287;-54
2020/12/27 09:40:04;;;;;;;8.23;4.67;;;;;;;;;;5074104;28;20400;-54
2020/12/27 09:42:34;;;;;;;6.47;4.60;;;;;;;;;;5073991;28;20260;-54
2020/12/27 09:45:17;;;;;;;10.00;6.17;;;;;;;;;;5073991;28;20336;-54
2020/12/27 09:47:50;;;;;;;9.07;4.60;;;;;;;;;;5074160;28;20284;-54
2020/12/27 09:50:23;;;;;;;9.27;5.33;;;;;;;;;;5073792;28;20384;-55
2020/12/27 09:52:50;;;;;;;6.50;4.90;;;;;;;;;;5073790;28;20276;-54
2020/12/27 09:55:16;;;;;;;6.07;4.47;;;;;;;;;;5073822;28;20250;-55
2020/12/27 09:57:43;;;;;;;9.00;5.33;;;;;;;;;;5073694;28;20265;-54
2020/12/27 10:00:10;;;;;;;9.30;6.07;;;;;;;;;;5073477;28;20258;-54
2020/12/27 10:02:37;;;;;;;10.40;6.30;;;;;;;;;;5073767;28;20268;-54
2020/12/27 10:05:04;;;;;;;7.80;5.30;;;;;;;;;;5073668;28;20285;-54
2020/12/27 10:07:31;;;;;;;8.97;6.17;;;;;;;;;;5073249;28;20766;-54
2020/12/27 10:09:58;;;;;;;11.67;6.67;;;;;;;;;;5073512;28;20250;-54
2020/12/27 10:12:25;;;;;;;10.67;6.30;;;;;;;;;;5073566;28;20253;-54
2020/12/27 10:14:52;;;;;;;8.57;5.90;;;;;;;;;;5073543;28;20565;-54
2020/12/27 10:17:19;;;;;;;10.27;5.97;;;;;;;;;;5073113;28;20323;-53
2020/12/27 10:19:46;;;;;;;9.37;5.20;;;;;;;;;;5074196;28;20292;-53
2020/12/27 10:22:13;;;;;;;10.67;5.73;;;;;;;;;;5073294;28;20254;-53
2020/12/27 10:24:40;;;;;;;8.63;5.73;;;;;;;;;;5073325;28;20253;-53
2020/12/27 10:27:07;;;;;;;8.63;5.30;;;;;;;;;;5073135;28;20277;-53
2020/12/27 10:29:34;;;;;;;7.90;5.30;;;;;;;;;;5073270;28;20288;-54
2020/12/27 10:32:02;;;;;;;7.67;5.07;;;;;;;;;;5073253;28;20249;-54
2020/12/27 10:34:29;;;;;;;8.43;4.70;;;;;;;;;;5073097;28;20268;-54
2020/12/27 10:36:57;;;;;;;7.97;5.17;;;;;;;;;;5072791;28;20245;-54
2020/12/27 10:39:24;;;;;;;6.57;4.60;;;;;;;;;;5073072;28;20250;-54
2020/12/27 10:41:51;;;;;;;7.70;4.10;;;;;;;;;;5073100;28;20277;-54
2020/12/27 10:44:18;;;;;;;11.97;5.60;;;;;;;;;;5073102;28;20253;-54
2020/12/27 10:46:46;;;;;;;7.50;5.33;;;;;;;;;;5072828;28;20623;-54
2020/12/27 10:49:13;;;;;;;7.17;4.57;;;;;;;;;;5072959;28;20257;-54
2020/12/27 10:51:40;;;;;;;6.93;4.63;;;;;;;;;;5073038;28;20245;-54
2020/12/27 10:54:08;;;;;;;9.10;4.63;;;;;;;;;;5072933;28;20257;-54
2020/12/27 10:56:35;;;;;;;8.60;5.00;;;;;;;;;;5072793;28;20324;-54
2020/12/27 10:59:01;;;;;;;12.37;6.00;;;;;;;;;;5072809;28;20616;-55
2020/12/27 11:01:28;;;;;;;8.67;6.10;;;;;;;;;;5072741;28;20241;-54
2020/12/27 11:03:55;;;;;;;7.73;5.17;;;;;;;;;;5072778;28;20285;-54
2020/12/27 11:06:31;;;;;;;8.70;5.13;;;;;;;;;;5072741;28;20249;-54
2020/12/27 11:08:59;;;;;;;9.53;5.03;;;;;;;;;;5072836;28;20272;-54
2020/12/27 11:11:25;;;;;;;7.97;5.17;;;;;;;;;;5072710;28;20277;-54
2020/12/27 11:13:52;;;;;;;6.67;5.10;;;;;;;;;;5072611;28;20287;-54
2020/12/27 11:16:19;;;;;;;7.83;4.70;;;;;;;;;;5072583;28;20325;-54
2020/12/27 11:18:46;;;;;;;7.70;5.03;;;;;;;;;;5073915;28;20289;-54
2020/12/27 11:21:13;;;;;;;7.83;5.03;;;;;;;;;;5072845;28;20307;-54
2020/12/27 11:23:39;;;;;;;7.43;4.83;;;;;;;;;;5072583;28;20257;-54
2020/12/27 11:26:06;;;;;;;10.00;5.83;;;;;;;;;;5072660;28;20326;-54
2020/12/27 11:28:33;;;;;;;9.73;5.93;;;;;;;;;;5072554;28;20285;-53
2020/12/27 11:31:00;;;;;;;8.00;5.70;;;;;;;;;;5072615;28;20807;-54
2020/12/27 11:33:26;;;;;;;8.73;6.00;;;;;;;;;;5072522;28;20330;-53
2020/12/27 11:35:53;;;;;;;11.23;6.40;;;;;;;;;;5072413;28;20724;-53
2020/12/27 11:38:20;;;;;;;9.60;6.67;;;;;;;;;;5072403;28;20259;-53
2020/12/27 11:40:46;;;;;;;10.97;6.20;;;;;;;;;;5072431;28;20269;-53
2020/12/27 11:43:13;;;;;;;9.27;5.50;;;;;;;;;;5072375;28;20716;-52
2020/12/27 11:45:40;;;;;;;12.90;6.17;;;;;;;;;;5072331;28;20265;-53
2020/12/27 11:48:07;;;;;;;11.67;7.50;;;;;;;;;;5072219;28;20285;-53
2020/12/27 11:50:33;;;;;;;12.87;6.50;;;;;;;;;;5075284;28;20245;-53
2020/12/27 11:53:00;;;;;;;9.23;5.90;;;;;;;;;;5076249;28;20586;-53
2020/12/27 11:55:27;;;;;;;7.73;5.00;;;;;;;;;;5076293;28;20281;-53
2020/12/27 11:57:53;;;;;;;10.77;5.73;;;;;;;;;;5075994;28;20307;-53
2020/12/27 12:00:20;;;;;;;10.30;5.90;;;;;;;;;;5076005;28;20296;-53
2020/12/27 12:02:48;;;;;;;9.50;5.53;;;;;;;;;;5075995;28;20276;-54
2020/12/27 12:05:14;;;;;;;8.33;5.63;;;;;;;;;;5076092;28;20306;-53
2020/12/27 12:07:41;;;;;;;9.13;6.07;;;;;;;;;;5076079;28;20318;-52
2020/12/27 12:10:08;;;;;;;13.33;6.27;;;;;;;;;;5075910;28;20741;-53
2020/12/27 12:12:35;;;;;;;8.87;5.80;;;;;;;;;;5075818;28;20262;-53
2020/12/27 12:15:01;;;;;;;10.30;5.53;;;;;;;;;;5075759;28;20310;-53
2020/12/27 12:17:28;;;;;;;9.17;5.63;;;;;;;;;;5075612;28;20261;-54
2020/12/27 12:19:55;;;;;;;9.60;6.13;;;;;;;;;;5076820;27;20281;-52
2020/12/27 12:22:22;;;;;;;9.43;6.00;;;;;;;;;;5075582;28;20257;-52
2020/12/27 12:24:48;;;;;;;8.17;5.33;;;;;;;;;;5075609;28;20264;-52
2020/12/27 12:27:15;;;;;;;8.30;5.17;;;;;;;;;;5075390;28;20647;-53
2020/12/27 12:29:42;;;;;;;10.27;5.63;;;;;;;;;;5075521;28;20258;-53
2020/12/27 12:32:08;;;;;;;9.13;5.57;;;;;;;;;;5075444;28;20316;-53
2020/12/27 12:34:35;;;;;;;10.43;5.60;;;;;;;;;;5075674;28;20257;-53
2020/12/27 12:37:02;;;;;;;9.50;5.50;;;;;;;;;;5075317;28;20309;-53
2020/12/27 12:39:28;;;;;;;10.73;5.43;;;;;;;;;;5075341;28;20604;-53
2020/12/27 12:41:58;;;;;;;10.17;5.53;;;;;;;;;;5075308;28;20654;-52
2020/12/27 12:44:25;;;;;;;8.17;4.83;;;;;;;;;;5075230;28;20265;-53
2020/12/27 12:46:52;;;;;;;9.03;6.17;;;;;;;;;;5075117;28;20385;-53
2020/12/27 12:49:19;;;;;;;9.77;5.77;;;;;;;;;;5075214;28;20654;-53
2020/12/27 12:51:45;;;;;;;8.57;5.60;;;;;;;;;;5075148;28;20257;-52
2020/12/27 12:54:12;;;;;;;9.80;5.60;;;;;;;;;;5075004;28;20611;-52
2020/12/27 12:56:39;;;;;;;8.37;5.53;;;;;;;;;;5074969;28;20396;-52
2020/12/27 12:59:06;;;;;;;12.20;6.40;;;;;;;;;;5075017;28;20253;-52
2020/12/27 13:01:32;;;;;;;8.23;4.80;;;;;;;;;;5074492;28;20398;-53
2020/12/27 13:03:59;;;;;;;7.33;4.70;;;;;;;;;;5074705;28;20250;-52
2020/12/27 13:06:26;;;;;;;10.70;5.70;;;;;;;;;;5074668;28;20261;-52
2020/12/27 13:08:55;;;;;;;6.87;4.77;;;;;;;;;;5074724;28;20257;-53
2020/12/27 13:11:21;;;;;;;9.67;6.10;;;;;;;;;;5075051;28;20324;-53
2020/12/27 13:13:48;;;;;;;10.60;5.87;;;;;;;;;;5074792;28;20257;-52
2020/12/27 13:16:15;;;;;;;13.10;5.23;;;;;;;;;;5074603;28;20241;-52
2020/12/27 13:18:42;;;;;;;10.90;6.67;;;;;;;;;;5075673;27;20303;-53
2020/12/27 13:21:09;;;;;;;8.07;5.30;;;;;;;;;;5074518;28;20276;-52
2020/12/27 13:23:36;;;;;;;9.50;5.97;;;;;;;;;;5074492;28;20654;-52
2020/12/27 13:26:02;;;;;;;8.07;5.30;;;;;;;;;;5074493;28;20257;-52
2020/12/27 13:28:29;;;;;;;8.03;5.43;;;;;;;;;;5074338;28;20399;-52
2020/12/27 13:30:57;;;;;;;8.43;6.03;;;;;;;;;;5074430;28;20253;-52
2020/12/27 13:33:24;;;;;;;11.37;5.57;;;;;;;;;;5074281;28;20809;-52
2020/12/27 13:35:50;;;;;;;8.40;5.50;;;;;;;;;;5074206;28;20327;-52
2020/12/27 13:38:17;;;;;;;9.30;5.83;;;;;;;;;;5074196;28;20281;-52
2020/12/27 13:40:44;;;;;;;9.83;5.63;;;;;;;;;;5074290;28;20248;-52
2020/12/27 13:43:10;;;;;;;8.37;5.90;;;;;;;;;;5074178;28;20310;-53
2020/12/27 13:45:40;;;;;;;8.90;5.97;;;;;;;;;;5074131;28;20265;-53
2020/12/27 13:48:08;;;;;;;8.87;6.00;;;;;;;;;;5073896;28;20620;-53
2020/12/27 13:50:35;;;;;;;8.87;6.40;;;;;;;;;;5073986;28;20296;-53
2020/12/27 13:53:01;;;;;;;12.73;6.50;;;;;;;;;;5073896;28;20739;-53
2020/12/27 13:55:28;;;;;;;13.10;6.37;;;;;;;;;;5073916;28;20273;-53
2020/12/27 13:57:55;;;;;;;10.40;6.53;;;;;;;;;;5055853;28;20795;-54
2020/12/27 14:00:21;;;;;;;12.50;6.03;;;;;;;;;;5073808;28;20299;-53
2020/12/27 14:02:48;;;;;;;12.73;6.57;;;;;;;;;;5073619;28;20253;-52
2020/12/27 14:05:15;;;;;;;10.20;6.77;;;;;;;;;;5073838;28;20276;-53
2020/12/27 14:07:42;;;;;;;14.30;6.07;;;;;;;;;;5073445;28;20703;-53
2020/12/27 14:10:10;;;;;;;6.87;5.50;;;;;;;;;;5073616;28;20322;-53
2020/12/27 14:12:36;;;;;;;9.03;6.10;;;;;;;;;;5072887;28;20265;-54
2020/12/27 14:15:03;;;;;;;9.47;5.97;;;;;;;;;;5073545;28;20257;-54
2020/12/27 14:17:30;;;;;;;10.33;5.87;;;;;;;;;;5073533;28;20261;-54
2020/12/27 14:19:56;;;;;;;11.90;7.23;;;;;;;;;;5074635;28;20289;-54
2020/12/27 14:22:23;;;;;;;11.30;6.13;;;;;;;;;;5073298;28;20261;-54
2020/12/27 14:24:50;;;;;;;11.10;8.07;;;;;;;;;;5073532;28;20285;-54
2020/12/27 14:27:16;;;;;;;17.13;9.57;;;;;;;;;;5073267;28;20279;-54
2020/12/27 14:29:43;;;;;;;13.67;8.73;;;;;;;;;;5073247;28;20308;-54
2020/12/27 14:32:10;;;;;;;20.13;10.17;;;;;;;;;;5073195;28;20307;-54
2020/12/27 14:34:37;;;;;;;17.87;9.13;;;;;;;;;;5073263;28;20793;-54
2020/12/27 14:37:03;;;;;;;14.60;9.20;;;;;;;;;;5073223;28;20248;-54
2020/12/27 14:39:30;;;;;;;19.10;10.90;;;;;;;;;;5072968;28;20254;-54
2020/12/27 14:41:57;;;;;;;32.63;17.07;;;;;;;;;;5073112;28;20025;-54